createdAt,value
2023-03-22T00:02:16.708Z,101273.20
2023-03-22T00:04:46.292Z,101274.31
2023-03-22T00:07:16.640Z,101274.20
2023-03-22T00:09:48.377Z,101276.59
2023-03-22T00:12:19.568Z,101278.01
2023-03-22T00:14:49.694Z,101277.96
2023-03-22T00:17:25.596Z,101277.55
2023-03-22T00:19:55.774Z,101281.64
2023-03-22T00:22:25.866Z,101283.60
2023-03-22T00:24:55.557Z,101284.34
2023-03-22T00:27:25.237Z,101282.70
2023-03-22T00:29:54.959Z,101279.75
2023-03-22T00:32:24.405Z,101280.69
2023-03-22T00:34:53.848Z,101279.57
2023-03-22T00:37:23.354Z,101277.88
2023-03-22T00:39:52.952Z,101273.54
2023-03-22T00:42:23.968Z,101269.91
2023-03-22T00:44:53.411Z,101266.80
2023-03-22T00:47:23.527Z,101262.33
2023-03-22T00:49:53.211Z,101264.42
2023-03-22T00:52:23.017Z,101256.95
2023-03-22T00:54:52.949Z,101251.92
2023-03-22T00:57:22.948Z,101251.15
2023-03-22T00:59:56.063Z,101249.77
2023-03-22T01:02:31.488Z,101250.26
2023-03-22T01:05:01.528Z,101249.87
2023-03-22T01:07:33.950Z,101255.85
2023-03-22T01:10:09.391Z,101257.82
2023-03-22T01:12:41.519Z,101260.04
2023-03-22T01:15:12.125Z,101262.05
2023-03-22T01:17:42.050Z,101267.12
2023-03-22T01:20:38.645Z,101265.17
2023-03-22T01:23:12.841Z,101258.65
2023-03-22T01:25:44.168Z,101256.13
2023-03-22T01:28:14.415Z,101251.71
2023-03-22T01:34:32.252Z,101251.08
2023-03-22T01:37:04.188Z,101248.73
2023-03-22T01:39:35.585Z,101246.52
2023-03-22T01:42:14.573Z,101247.73
2023-03-22T01:45:14.240Z,101250.96
2023-03-22T01:54:52.959Z,101263.15
2023-03-22T01:57:38.541Z,101264.55
2023-03-22T02:00:20.313Z,101260.08
2023-03-22T02:06:16.027Z,101268.64
2023-03-22T02:08:47.553Z,101273.02
2023-03-22T02:11:46.969Z,101276.72
2023-03-22T02:15:05.958Z,101277.64
2023-03-22T02:18:30.621Z,101281.52
2023-03-22T02:21:28.072Z,101282.30
2023-03-22T02:24:33.919Z,101283.08
2023-03-22T02:27:37.256Z,101280.27
2023-03-22T02:30:46.373Z,101276.05
2023-03-22T02:33:34.785Z,101280.33
2023-03-22T02:36:14.814Z,101282.55
2023-03-22T02:39:08.952Z,101279.41
2023-03-22T02:41:59.342Z,101281.52
2023-03-22T02:44:41.760Z,101281.72
2023-03-22T02:47:39.057Z,101282.11
2023-03-22T02:50:17.903Z,101285.92
2023-03-22T02:52:51.754Z,101285.59
2023-03-22T02:55:31.693Z,101278.45
2023-03-22T02:58:10.973Z,101284.27
2023-03-22T03:00:43.682Z,101279.27
2023-03-22T03:03:18.489Z,101287.08
2023-03-22T03:05:56.057Z,101279.56
2023-03-22T03:08:28.425Z,101277.40
2023-03-22T03:10:58.149Z,101280.23
2023-03-22T03:13:27.846Z,101283.55
2023-03-22T03:16:01.582Z,101286.89
2023-03-22T03:18:46.201Z,101286.83
2023-03-22T03:21:36.138Z,101288.13
2023-03-22T03:24:36.841Z,101292.39
2023-03-22T03:27:38.450Z,101291.52
2023-03-22T03:30:22.015Z,101291.06
2023-03-22T03:33:24.513Z,101298.95
2023-03-22T03:36:02.811Z,101301.95
2023-03-22T03:38:38.004Z,101303.69
2023-03-22T03:41:16.664Z,101305.63
2023-03-22T03:43:47.818Z,101308.39
2023-03-22T03:46:17.938Z,101311.45
2023-03-22T03:48:50.654Z,101314.05
2023-03-22T03:51:20.371Z,101319.60
2023-03-22T03:53:49.940Z,101317.92
2023-03-22T03:56:20.212Z,101321.66
2023-03-22T03:58:50.026Z,101321.27
2023-03-22T04:01:20.923Z,101327.77
2023-03-22T04:04:10.332Z,101331.29
2023-03-22T04:06:57.318Z,101332.97
2023-03-22T04:09:31.465Z,101333.55
2023-03-22T04:12:06.548Z,101336.03
2023-03-22T04:14:36.372Z,101335.94
2023-03-22T04:17:11.010Z,101339.40
2023-03-22T04:19:41.528Z,101338.33
2023-03-22T04:22:14.958Z,101346.64
2023-03-22T04:24:50.496Z,101343.66
2023-03-22T04:27:22.604Z,101346.23
2023-03-22T04:30:01.111Z,101347.97
2023-03-22T04:33:15.413Z,101349.94
2023-03-22T04:36:40.491Z,101355.93
2023-03-22T04:39:17.161Z,101363.25
2023-03-22T04:41:53.507Z,101365.47
2023-03-22T04:44:22.985Z,101364.73
2023-03-22T04:46:53.011Z,101368.55
2023-03-22T04:49:22.939Z,101369.31
2023-03-22T04:51:52.492Z,101373.24
2023-03-22T04:54:31.227Z,101380.70
2023-03-22T04:57:01.152Z,101381.13
2023-03-22T04:59:32.855Z,101383.95
2023-03-22T05:02:02.616Z,101383.92
2023-03-22T05:04:35.868Z,101386.66
2023-03-22T05:07:11.269Z,101383.97
2023-03-22T05:09:51.510Z,101385.89
2023-03-22T05:12:21.156Z,101387.59
2023-03-22T05:14:58.726Z,101389.55
2023-03-22T05:17:32.448Z,101392.67
2023-03-22T05:20:10.442Z,101395.80
2023-03-22T05:22:41.595Z,101398.31
2023-03-22T05:25:14.265Z,101396.90
2023-03-22T05:27:45.945Z,101404.25
2023-03-22T05:30:26.036Z,101405.63
2023-03-22T05:33:04.185Z,101406.95
2023-03-22T05:35:39.384Z,101408.19
2023-03-22T05:38:10.959Z,101410.88
2023-03-22T05:40:45.049Z,101415.73
2023-03-22T05:43:14.964Z,101417.58
2023-03-22T05:45:48.215Z,101421.52
2023-03-22T05:49:16.481Z,101423.80
2023-03-22T05:51:46.107Z,101426.68
2023-03-22T05:54:16.109Z,101427.20
2023-03-22T05:56:50.439Z,101430.55
2023-03-22T05:59:21.090Z,101430.17
2023-03-22T06:01:51.216Z,101432.65
2023-03-22T06:04:24.116Z,101435.00
2023-03-22T06:07:06.126Z,101436.38
2023-03-22T06:09:45.765Z,101439.78
2023-03-22T06:12:18.820Z,101443.39
2023-03-22T06:14:54.633Z,101444.54
2023-03-22T06:17:35.564Z,101446.16
2023-03-22T06:20:12.304Z,101445.30
2023-03-22T06:22:44.081Z,101449.62
2023-03-22T06:25:15.433Z,101449.06
2023-03-22T06:27:48.359Z,101448.08
2023-03-22T06:30:18.348Z,101453.50
2023-03-22T06:33:28.370Z,101453.97
2023-03-22T06:36:04.164Z,101454.24
2023-03-22T06:38:45.927Z,101455.75
2023-03-22T06:41:19.252Z,101452.79
2023-03-22T06:43:49.445Z,101453.02
2023-03-22T06:47:16.685Z,101455.00
2023-03-22T06:50:08.580Z,101456.44
2023-03-22T06:52:56.677Z,101458.59
2023-03-22T06:55:26.407Z,101462.20
2023-03-22T06:57:56.021Z,101464.47
2023-03-22T07:00:25.469Z,101467.86
2023-03-22T07:02:55.116Z,101470.95
2023-03-22T07:05:35.896Z,101474.88
2023-03-22T07:08:05.494Z,101479.81
2023-03-22T07:10:35.191Z,101484.81
2023-03-22T07:13:07.040Z,101487.84
2023-03-22T07:15:36.818Z,101488.69
2023-03-22T07:18:13.710Z,101493.17
2023-03-22T07:20:46.556Z,101493.09
2023-03-22T07:23:16.722Z,101494.63
2023-03-22T07:25:50.487Z,101494.74
2023-03-22T07:28:24.742Z,101495.66
2023-03-22T07:31:07.088Z,101494.46
2023-03-22T07:33:50.731Z,101495.19
2023-03-22T07:36:23.971Z,101494.63
2023-03-22T07:38:53.846Z,101494.03
2023-03-22T07:41:35.344Z,101499.05
2023-03-22T07:44:47.309Z,101498.59
2023-03-22T07:47:22.137Z,101497.49
2023-03-22T07:50:49.357Z,101495.92
2023-03-22T07:53:19.105Z,101495.21
2023-03-22T07:55:50.706Z,101494.16
2023-03-22T07:58:20.622Z,101495.05
2023-03-22T08:00:51.782Z,101495.39
2023-03-22T08:04:07.491Z,101497.30
2023-03-22T08:06:44.013Z,101498.96
2023-03-22T08:09:13.582Z,101500.11
2023-03-22T08:11:44.492Z,101499.33
2023-03-22T08:14:14.046Z,101500.06
2023-03-22T08:16:44.460Z,101500.77
2023-03-22T08:19:14.542Z,101501.30
2023-03-22T08:21:44.214Z,101503.73
2023-03-22T08:24:23.769Z,101504.93
2023-03-22T08:27:06.079Z,101507.19
2023-03-22T08:29:43.877Z,101509.48
2023-03-22T08:32:13.783Z,101508.70
2023-03-22T08:34:44.193Z,101511.63
2023-03-22T08:37:13.957Z,101510.46
2023-03-22T08:39:46.235Z,101514.55
2023-03-22T08:42:21.628Z,101516.16
2023-03-22T08:44:52.694Z,101519.52
2023-03-22T08:47:26.317Z,101521.29
2023-03-22T08:50:01.279Z,101519.38
2023-03-22T08:52:38.654Z,101517.79
2023-03-22T08:55:27.005Z,101521.71
2023-03-22T08:58:16.585Z,101525.38
2023-03-22T09:00:57.666Z,101523.32
2023-03-22T09:03:32.357Z,101525.48
2023-03-22T09:06:02.196Z,101526.98
2023-03-22T09:08:34.665Z,101529.77
2023-03-22T09:11:12.575Z,101531.30
2023-03-22T09:13:46.089Z,101536.19
2023-03-22T09:16:16.793Z,101537.06
2023-03-22T09:18:47.806Z,101534.59
2023-03-22T09:21:19.674Z,101530.71
2023-03-22T09:23:54.696Z,101529.31
2023-03-22T09:26:28.657Z,101531.05
2023-03-22T09:28:58.259Z,101528.05
2023-03-22T09:31:28.687Z,101528.50
2023-03-22T09:34:08.600Z,101533.77
2023-03-22T09:36:40.010Z,101527.36
2023-03-22T09:39:11.351Z,101529.14
2023-03-22T09:41:50.958Z,101528.03
2023-03-22T09:44:29.635Z,101526.57
2023-03-22T09:47:09.075Z,101531.67
2023-03-22T09:49:52.857Z,101533.48
2023-03-22T09:52:24.829Z,101532.73
2023-03-22T09:54:56.412Z,101532.40
2023-03-22T09:57:40.042Z,101532.52
2023-03-22T10:00:34.069Z,101535.77
2023-03-22T10:04:02.289Z,101536.73
2023-03-22T10:06:35.014Z,101534.27
2023-03-22T10:09:36.508Z,101533.00
2023-03-22T10:12:12.492Z,101537.70
2023-03-22T10:15:16.277Z,101537.82
2023-03-22T10:17:55.462Z,101537.19
2023-03-22T10:20:35.019Z,101539.41
2023-03-22T10:23:27.106Z,101536.52
2023-03-22T10:25:59.470Z,101536.05
2023-03-22T10:28:44.467Z,101535.96
2023-03-22T10:31:21.428Z,101534.58
2023-03-22T10:34:02.507Z,101536.89
2023-03-22T10:36:37.451Z,101537.84
2023-03-22T10:39:27.319Z,101533.23
2023-03-22T10:42:00.682Z,101535.84
2023-03-22T10:44:36.419Z,101533.06
2023-03-22T10:47:08.643Z,101535.98
2023-03-22T10:49:45.065Z,101534.02
2023-03-22T10:52:18.001Z,101532.95
2023-03-22T10:54:47.943Z,101532.28
2023-03-22T10:57:18.454Z,101530.89
2023-03-22T10:59:56.198Z,101529.55
2023-03-22T11:02:35.880Z,101527.89
2023-03-22T11:05:07.335Z,101529.52
2023-03-22T11:07:46.160Z,101528.78
2023-03-22T11:10:33.378Z,101527.20
2023-03-22T11:13:09.605Z,101525.80
2023-03-22T11:16:03.259Z,101522.00
2023-03-22T11:18:35.578Z,101521.48
2023-03-22T11:21:12.816Z,101519.88
2023-03-22T11:23:52.413Z,101521.21
2023-03-22T11:26:38.947Z,101519.61
2023-03-22T11:29:19.599Z,101519.62
2023-03-22T11:32:00.405Z,101517.54
2023-03-22T11:34:31.934Z,101517.98
2023-03-22T11:37:01.748Z,101515.89
2023-03-22T11:39:31.281Z,101516.33
2023-03-22T11:42:06.675Z,101512.52
2023-03-22T11:44:40.417Z,101509.94
2023-03-22T11:47:13.978Z,101506.63
2023-03-22T11:49:47.437Z,101504.05
2023-03-22T11:52:27.678Z,101500.95
2023-03-22T11:55:00.301Z,101499.69
2023-03-22T11:57:34.434Z,101502.17
2023-03-22T12:00:15.732Z,101501.79
2023-03-22T12:02:59.042Z,101503.72
2023-03-22T12:05:39.747Z,101502.45
2023-03-22T12:08:21.965Z,101499.79
2023-03-22T12:11:05.168Z,101503.15
2023-03-22T12:13:50.318Z,101498.73
2023-03-22T12:16:28.542Z,101497.62
2023-03-22T12:19:32.678Z,101498.41
2023-03-22T12:22:02.669Z,101498.02
2023-03-22T12:24:32.989Z,101501.52
2023-03-22T12:27:16.938Z,101503.23
2023-03-22T12:29:57.337Z,101500.65
2023-03-22T12:32:47.956Z,101499.14
2023-03-22T12:35:33.670Z,101497.50
2023-03-22T12:38:57.687Z,101499.83
2023-03-22T12:41:36.157Z,101500.53
2023-03-22T12:44:23.015Z,101500.23
2023-03-22T12:47:02.573Z,101503.43
2023-03-22T12:50:18.868Z,101502.78
2023-03-22T12:52:56.611Z,101507.46
2023-03-22T12:55:31.464Z,101506.98
2023-03-22T12:58:02.295Z,101510.27
2023-03-22T13:00:49.157Z,101513.81
2023-03-22T13:03:22.997Z,101510.58
2023-03-22T13:06:06.790Z,101511.86
2023-03-22T13:09:19.728Z,101515.48
2023-03-22T13:12:18.377Z,101512.27
2023-03-22T13:14:51.147Z,101511.52
2023-03-22T13:17:23.383Z,101507.65
2023-03-22T13:20:14.157Z,101507.48
2023-03-22T13:23:12.152Z,101505.45
2023-03-22T13:26:00.876Z,101505.65
2023-03-22T13:28:37.222Z,101508.74
2023-03-22T13:31:07.395Z,101507.02
2023-03-22T13:33:37.391Z,101507.86
2023-03-22T13:36:25.688Z,101506.58
2023-03-22T13:39:12.611Z,101506.40
2023-03-22T13:41:48.660Z,101503.41
2023-03-22T13:44:40.039Z,101503.73
2023-03-22T13:47:35.506Z,101505.94
2023-03-22T13:50:18.267Z,101505.81
2023-03-22T13:53:15.882Z,101507.09
2023-03-22T13:55:54.099Z,101500.25
2023-03-22T13:58:37.151Z,101502.86
2023-03-22T14:01:37.175Z,101502.21
2023-03-22T14:04:14.085Z,101507.35
2023-03-22T14:07:00.993Z,101501.02
2023-03-22T14:09:39.760Z,101505.55
2023-03-22T14:12:37.145Z,101502.31
2023-03-22T14:15:09.160Z,101500.27
2023-03-22T14:18:03.164Z,101500.48
2023-03-22T14:20:37.840Z,101501.87
